GAP2280 RPVB-RPVM
Flight info
| Callsign | GAP2280 |
|---|---|
| Flight time | 0h 24m |
| Altitude | 15000 |
| Route | TADAG2E TADAG TADAG3P |
| Aircraft | DH8D/M-SDE2E3FGRY/H |
Departure
| Time | 2026-04-24 07:14 |
|---|---|
| Airport | Bacolod-Silay International Airport (RPVB) |
Arrival
| Time | 2026-04-24 07:39 |
|---|---|
| Airport | Mactan Cebu International Airport (RPVM) |
| Time | Latitude | Longitude | Altitude | Speed | Heading |
|---|---|---|---|---|---|
| 2026-04-24 07:12 | 10.77271 | 123.01658 | 96 ft | 9 kts | 155° |
| 2026-04-24 07:12 | 10.77206 | 123.01644 | 96 ft | 11 kts | 210° |
| 2026-04-24 07:12 | 10.77128 | 123.01599 | 95 ft | 14 kts | 211° |
| 2026-04-24 07:12 | 10.77032 | 123.01543 | 95 ft | 16 kts | 210° |
| 2026-04-24 07:13 | 10.76939 | 123.01474 | 95 ft | 12 kts | 234° |
| 2026-04-24 07:13 | 10.76899 | 123.01441 | 95 ft | 4 kts | 174° |
| 2026-04-24 07:13 | 10.76887 | 123.01456 | 95 ft | 2 kts | 69° |
| 2026-04-24 07:13 | 10.76900 | 123.01466 | 95 ft | 3 kts | 32° |
| 2026-04-24 07:14 | 10.77013 | 123.01533 | 95 ft | 51 kts | 30° |
| 2026-04-24 07:14 | 10.77586 | 123.01865 | 99 ft | 130 kts | 31° |
| 2026-04-24 07:14 | 10.78454 | 123.02366 | 336 ft | 152 kts | 31° |
| 2026-04-24 07:14 | 10.79404 | 123.02928 | 862 ft | 164 kts | 32° |
| 2026-04-24 07:15 | 10.80405 | 123.03522 | 1449 ft | 171 kts | 32° |
| 2026-04-24 07:15 | 10.81455 | 123.04142 | 2013 ft | 180 kts | 32° |
| 2026-04-24 07:15 | 10.82570 | 123.04795 | 2524 ft | 186 kts | 32° |
| 2026-04-24 07:15 | 10.83697 | 123.05453 | 3049 ft | 190 kts | 32° |
| 2026-04-24 07:16 | 10.84858 | 123.06130 | 3603 ft | 193 kts | 31° |
| 2026-04-24 07:16 | 10.86082 | 123.06694 | 4127 ft | 197 kts | 11° |
| 2026-04-24 07:16 | 10.87412 | 123.06371 | 4536 ft | 208 kts | 323° |
| 2026-04-24 07:16 | 10.88122 | 123.05117 | 4952 ft | 214 kts | 276° |
| 2026-04-24 07:17 | 10.87730 | 123.03683 | 5371 ft | 212 kts | 227° |
| 2026-04-24 07:17 | 10.86502 | 123.02962 | 5808 ft | 207 kts | 189° |
| 2026-04-24 07:17 | 10.85082 | 123.02763 | 6299 ft | 207 kts | 183° |
| 2026-04-24 07:17 | 10.83632 | 123.02621 | 6800 ft | 209 kts | 182° |
| 2026-04-24 07:18 | 10.82189 | 123.02490 | 7287 ft | 211 kts | 182° |
| 2026-04-24 07:18 | 10.80715 | 123.02357 | 7764 ft | 212 kts | 182° |
| 2026-04-24 07:18 | 10.79233 | 123.02225 | 8237 ft | 214 kts | 182° |
| 2026-04-24 07:18 | 10.77737 | 123.02113 | 8682 ft | 215 kts | 177° |
| 2026-04-24 07:19 | 10.76267 | 123.02329 | 9117 ft | 214 kts | 164° |
| 2026-04-24 07:19 | 10.74820 | 123.02691 | 9547 ft | 215 kts | 163° |
| 2026-04-24 07:19 | 10.73362 | 123.03057 | 9963 ft | 218 kts | 163° |
| 2026-04-24 07:19 | 10.71891 | 123.03425 | 10372 ft | 219 kts | 163° |
| 2026-04-24 07:20 | 10.70404 | 123.03794 | 10770 ft | 220 kts | 164° |
| 2026-04-24 07:20 | 10.68913 | 123.04163 | 11154 ft | 222 kts | 164° |
| 2026-04-24 07:20 | 10.67396 | 123.04536 | 11722 ft | 224 kts | 164° |
| 2026-04-24 07:20 | 10.65874 | 123.04908 | 12312 ft | 226 kts | 164° |
| 2026-04-24 07:21 | 10.64331 | 123.05285 | 12890 ft | 230 kts | 165° |
| 2026-04-24 07:21 | 10.62778 | 123.05664 | 13475 ft | 232 kts | 165° |
| 2026-04-24 07:21 | 10.61204 | 123.06049 | 14059 ft | 234 kts | 164° |
| 2026-04-24 07:21 | 10.59602 | 123.06441 | 14598 ft | 239 kts | 164° |
| 2026-04-24 07:22 | 10.57926 | 123.06854 | 14842 ft | 259 kts | 164° |
| 2026-04-24 07:22 | 10.56075 | 123.07314 | 14932 ft | 283 kts | 164° |
| 2026-04-24 07:22 | 10.54087 | 123.07807 | 14961 ft | 306 kts | 164° |
| 2026-04-24 07:22 | 10.51946 | 123.08337 | 14964 ft | 326 kts | 165° |
| 2026-04-24 07:23 | 10.49658 | 123.08902 | 14963 ft | 342 kts | 165° |
| 2026-04-24 07:23 | 10.47310 | 123.09480 | 14962 ft | 353 kts | 165° |
| 2026-04-24 07:23 | 10.44868 | 123.10079 | 14976 ft | 359 kts | 165° |
| 2026-04-24 07:23 | 10.42488 | 123.10648 | 14956 ft | 349 kts | 165° |
| 2026-04-24 07:24 | 10.40127 | 123.11213 | 14963 ft | 341 kts | 165° |
| 2026-04-24 07:24 | 10.37818 | 123.11767 | 14961 ft | 338 kts | 165° |
| 2026-04-24 07:24 | 10.35528 | 123.12318 | 14967 ft | 338 kts | 165° |
| 2026-04-24 07:24 | 10.33237 | 123.12872 | 14976 ft | 337 kts | 165° |
| 2026-04-24 07:25 | 10.30940 | 123.13428 | 14965 ft | 337 kts | 165° |
| 2026-04-24 07:25 | 10.28724 | 123.14123 | 14965 ft | 335 kts | 153° |
| 2026-04-24 07:25 | 10.26968 | 123.15652 | 14998 ft | 333 kts | 124° |
| 2026-04-24 07:25 | 10.25993 | 123.17792 | 15031 ft | 335 kts | 108° |
| 2026-04-24 07:26 | 10.25264 | 123.20051 | 15019 ft | 340 kts | 107° |
| 2026-04-24 07:26 | 10.24545 | 123.22366 | 15013 ft | 344 kts | 107° |
| 2026-04-24 07:26 | 10.23838 | 123.24680 | 15014 ft | 343 kts | 106° |
| 2026-04-24 07:26 | 10.23140 | 123.26979 | 15000 ft | 337 kts | 106° |
| 2026-04-24 07:27 | 10.22463 | 123.29220 | 14862 ft | 337 kts | 106° |
| 2026-04-24 07:27 | 10.21769 | 123.31525 | 14499 ft | 343 kts | 106° |
| 2026-04-24 07:27 | 10.21068 | 123.33861 | 14054 ft | 350 kts | 106° |
| 2026-04-24 07:27 | 10.20356 | 123.36234 | 13567 ft | 345 kts | 106° |
| 2026-04-24 07:28 | 10.19675 | 123.38514 | 13100 ft | 335 kts | 106° |
| 2026-04-24 07:28 | 10.18996 | 123.40778 | 12690 ft | 334 kts | 106° |
| 2026-04-24 07:28 | 10.18322 | 123.43028 | 12249 ft | 333 kts | 106° |
| 2026-04-24 07:28 | 10.17660 | 123.45241 | 11819 ft | 329 kts | 106° |
| 2026-04-24 07:29 | 10.16999 | 123.47450 | 11373 ft | 323 kts | 106° |
| 2026-04-24 07:29 | 10.16368 | 123.49569 | 10947 ft | 308 kts | 106° |
| 2026-04-24 07:29 | 10.15754 | 123.51624 | 10533 ft | 295 kts | 106° |
| 2026-04-24 07:29 | 10.15174 | 123.53566 | 10157 ft | 283 kts | 106° |
| 2026-04-24 07:30 | 10.14612 | 123.55445 | 9789 ft | 272 kts | 106° |
| 2026-04-24 07:30 | 10.14078 | 123.57231 | 9441 ft | 265 kts | 106° |
| 2026-04-24 07:30 | 10.13534 | 123.59035 | 9093 ft | 266 kts | 106° |
| 2026-04-24 07:30 | 10.12996 | 123.60828 | 8746 ft | 267 kts | 106° |
| 2026-04-24 07:31 | 10.12461 | 123.62608 | 8395 ft | 267 kts | 106° |
| 2026-04-24 07:31 | 10.11918 | 123.64420 | 8042 ft | 266 kts | 106° |
| 2026-04-24 07:31 | 10.11377 | 123.66223 | 7684 ft | 265 kts | 106° |
| 2026-04-24 07:31 | 10.10845 | 123.67999 | 7321 ft | 264 kts | 106° |
| 2026-04-24 07:32 | 10.10311 | 123.69778 | 6978 ft | 262 kts | 106° |
| 2026-04-24 07:32 | 10.09785 | 123.71531 | 6623 ft | 259 kts | 106° |
| 2026-04-24 07:32 | 10.09266 | 123.73261 | 6283 ft | 255 kts | 106° |
| 2026-04-24 07:32 | 10.08996 | 123.75014 | 5813 ft | 254 kts | 83° |
| 2026-04-24 07:33 | 10.09724 | 123.76615 | 5517 ft | 251 kts | 52° |
| 2026-04-24 07:33 | 10.10945 | 123.77897 | 5190 ft | 252 kts | 46° |
| 2026-04-24 07:33 | 10.12195 | 123.79125 | 4858 ft | 251 kts | 45° |
| 2026-04-24 07:33 | 10.13453 | 123.80346 | 4528 ft | 250 kts | 45° |
| 2026-04-24 07:34 | 10.14710 | 123.81561 | 4199 ft | 249 kts | 45° |
| 2026-04-24 07:34 | 10.15963 | 123.82778 | 3871 ft | 247 kts | 46° |
| 2026-04-24 07:34 | 10.17173 | 123.83993 | 3546 ft | 244 kts | 46° |
| 2026-04-24 07:34 | 10.18356 | 123.85182 | 3227 ft | 234 kts | 46° |
| 2026-04-24 07:35 | 10.19504 | 123.86335 | 2917 ft | 224 kts | 46° |
| 2026-04-24 07:35 | 10.20584 | 123.87421 | 2634 ft | 214 kts | 46° |
| 2026-04-24 07:35 | 10.21614 | 123.88456 | 2358 ft | 204 kts | 46° |
| 2026-04-24 07:35 | 10.22574 | 123.89419 | 2093 ft | 181 kts | 46° |
| 2026-04-24 07:36 | 10.23414 | 123.90263 | 1883 ft | 158 kts | 47° |
| 2026-04-24 07:36 | 10.24139 | 123.90991 | 1699 ft | 135 kts | 47° |
| 2026-04-24 07:36 | 10.24782 | 123.91647 | 1530 ft | 128 kts | 48° |
| 2026-04-24 07:36 | 10.25204 | 123.92084 | 1419 ft | 129 kts | 47° |
| 2026-04-24 07:37 | 10.26048 | 123.92954 | 1189 ft | 130 kts | 49° |
| 2026-04-24 07:37 | 10.26469 | 123.93383 | 1082 ft | 129 kts | 49° |
| 2026-04-24 07:37 | 10.27329 | 123.94262 | 876 ft | 137 kts | 49° |
| 2026-04-24 07:37 | 10.28025 | 123.94926 | 717 ft | 134 kts | 45° |
| 2026-04-24 07:38 | 10.28703 | 123.95576 | 525 ft | 133 kts | 44° |
| 2026-04-24 07:38 | 10.29336 | 123.96235 | 308 ft | 129 kts | 49° |
| 2026-04-24 07:38 | 10.29974 | 123.96886 | 147 ft | 128 kts | 49° |
| 2026-04-24 07:38 | 10.30611 | 123.97528 | 44 ft | 129 kts | 44° |
| 2026-04-24 07:39 | 10.31160 | 123.98079 | 38 ft | 76 kts | 45° |
| 2026-04-24 07:39 | 10.31357 | 123.98277 | 38 ft | 10 kts | 45° |
| 2026-04-24 07:39 | 10.31410 | 123.98298 | 38 ft | 7 kts | 339° |
| 2026-04-24 07:39 | 10.31455 | 123.98261 | 38 ft | 10 kts | 315° |
| 2026-04-24 07:40 | 10.31517 | 123.98197 | 38 ft | 14 kts | 314° |
| 2026-04-24 07:40 | 10.31581 | 123.98132 | 38 ft | 10 kts | 322° |
| 2026-04-24 07:40 | 10.31636 | 123.98125 | 38 ft | 6 kts | 32° |
| 2026-04-24 07:40 | 10.31669 | 123.98126 | 38 ft | 5 kts | 323° |
| 2026-04-24 07:41 | 10.31692 | 123.98103 | 38 ft | 1 kts | 314° |
| 2026-04-24 07:41 | 10.31695 | 123.98100 | 38 ft | 0 kts | 314° |